createdAt,value
2019-02-10T00:01:05.659Z,8.70
2019-02-10T00:03:34.323Z,9.88
2019-02-10T00:06:02.737Z,9.28
2019-02-10T00:08:31.150Z,5.53
2019-02-10T00:10:59.590Z,5.17
2019-02-10T00:13:30.405Z,8.18
2019-02-10T00:16:07.458Z,5.45
2019-02-10T00:18:35.863Z,9.50
2019-02-10T00:21:04.267Z,6.78
2019-02-10T00:23:32.731Z,8.23
2019-02-10T00:26:01.174Z,8.85
2019-02-10T00:28:29.635Z,7.37
2019-02-10T00:30:58.071Z,12.50
2019-02-10T00:33:26.518Z,11.50
2019-02-10T00:35:55.055Z,5.42
2019-02-10T00:38:23.463Z,9.08
2019-02-10T00:40:51.886Z,12.03
2019-02-10T00:43:20.331Z,11.10
2019-02-10T00:45:51.739Z,10.43
2019-02-10T00:48:20.191Z,10.18
2019-02-10T00:50:48.639Z,9.20
2019-02-10T00:53:17.136Z,6.85
2019-02-10T00:55:45.618Z,3.22
2019-02-10T00:58:14.046Z,7.10
2019-02-10T01:00:42.446Z,5.10
2019-02-10T01:03:10.903Z,8.08
2019-02-10T01:05:39.317Z,5.65
2019-02-10T01:08:07.737Z,4.95
2019-02-10T01:10:36.165Z,10.53
2019-02-10T01:13:04.581Z,8.38
2019-02-10T01:15:32.991Z,6.22
2019-02-10T01:18:01.456Z,7.25
2019-02-10T01:20:29.952Z,10.55
2019-02-10T01:22:58.390Z,6.97
2019-02-10T01:25:26.826Z,7.37
2019-02-10T01:27:55.226Z,6.08
2019-02-10T01:30:23.668Z,6.55
2019-02-10T01:32:52.134Z,4.80
2019-02-10T01:35:20.634Z,4.25
2019-02-10T01:37:49.042Z,5.60
2019-02-10T01:40:17.473Z,6.10
2019-02-10T01:42:49.441Z,6.47
2019-02-10T01:45:17.939Z,8.35
2019-02-10T01:47:46.346Z,9.18
2019-02-10T01:50:14.864Z,5.12
2019-02-10T01:52:43.270Z,8.73
2019-02-10T01:55:13.450Z,6.97
2019-02-10T01:57:42.539Z,4.95
2019-02-10T02:00:13.986Z,7.17
2019-02-10T02:02:42.488Z,7.05
2019-02-10T02:05:11.270Z,3.67
2019-02-10T02:07:39.747Z,7.95
2019-02-10T02:10:10.760Z,5.65
2019-02-10T02:12:39.162Z,8.70
2019-02-10T02:15:10.455Z,5.03
2019-02-10T02:17:38.892Z,6.20
2019-02-10T02:20:09.362Z,5.60
2019-02-10T02:22:37.887Z,6.78
2019-02-10T02:25:11.686Z,3.55
2019-02-10T02:27:40.490Z,4.70
2019-02-10T02:30:11.659Z,12.15
2019-02-10T02:32:40.169Z,6.83
2019-02-10T02:35:09.690Z,3.72
2019-02-10T02:37:38.245Z,4.67
2019-02-10T02:40:11.374Z,7.92
2019-02-10T02:42:40.440Z,12.40
2019-02-10T02:45:11.370Z,3.42
2019-02-10T02:47:39.859Z,6.80
2019-02-10T02:50:10.427Z,2.92
2019-02-10T02:52:38.992Z,3.70
2019-02-10T02:55:09.371Z,7.28
2019-02-10T02:57:37.772Z,4.33
2019-02-10T03:00:09.053Z,5.85
2019-02-10T03:02:37.478Z,7.97
2019-02-10T03:05:08.617Z,4.20
2019-02-10T03:07:37.024Z,7.25
2019-02-10T03:10:07.298Z,3.70
2019-02-10T03:12:35.866Z,3.50
2019-02-10T03:15:05.541Z,2.22
2019-02-10T03:17:34.020Z,5.35
2019-02-10T03:20:02.428Z,2.92
2019-02-10T03:22:30.880Z,4.20
2019-02-10T03:24:59.375Z,4.62
2019-02-10T03:27:27.778Z,6.60
2019-02-10T03:30:15.560Z,10.75
2019-02-10T03:32:43.996Z,8.13
2019-02-10T03:35:12.422Z,6.22
2019-02-10T03:37:40.827Z,7.65
2019-02-10T03:40:10.867Z,4.67
2019-02-10T03:42:39.545Z,3.02
2019-02-10T03:45:12.866Z,4.50
2019-02-10T03:47:41.283Z,3.20
2019-02-10T03:50:10.652Z,4.15
2019-02-10T03:52:39.058Z,3.15
2019-02-10T03:55:09.048Z,3.85
2019-02-10T03:57:37.498Z,3.70
2019-02-10T04:00:11.808Z,4.22
2019-02-10T04:02:40.246Z,4.58
2019-02-10T04:05:09.186Z,4.78
2019-02-10T04:07:37.599Z,4.55
2019-02-10T04:10:09.684Z,2.80
2019-02-10T04:12:38.164Z,3.35
2019-02-10T04:15:07.437Z,3.85
2019-02-10T04:17:36.006Z,4.45
2019-02-10T04:20:07.092Z,4.05
2019-02-10T04:22:35.567Z,2.65
2019-02-10T04:25:04.564Z,3.55
2019-02-10T04:27:32.973Z,3.08
2019-02-10T04:30:01.488Z,7.80
2019-02-10T04:32:29.924Z,4.65
2019-02-10T04:34:58.356Z,9.38
2019-02-10T04:37:26.776Z,1.87
2019-02-10T04:39:55.203Z,8.78
2019-02-10T04:42:23.646Z,2.70
2019-02-10T04:44:52.065Z,8.08
2019-02-10T04:47:20.494Z,4.65
2019-02-10T04:49:48.914Z,5.95
2019-02-10T04:52:17.328Z,2.45
2019-02-10T04:54:45.832Z,5.58
2019-02-10T04:57:14.232Z,3.27
2019-02-10T04:59:42.668Z,2.85
2019-02-10T05:02:11.081Z,12.68
2019-02-10T05:04:39.608Z,2.00
2019-02-10T05:07:08.020Z,3.02
2019-02-10T05:09:36.445Z,3.77
2019-02-10T05:12:05.023Z,3.65
2019-02-10T05:14:33.458Z,2.10
2019-02-10T05:17:02.029Z,2.37
2019-02-10T05:19:30.458Z,2.83
2019-02-10T05:21:58.985Z,3.17
2019-02-10T05:24:27.423Z,3.08
2019-02-10T05:26:55.867Z,1.82
2019-02-10T05:29:24.288Z,4.35
2019-02-10T05:31:52.881Z,2.33
2019-02-10T05:34:21.326Z,2.50
2019-02-10T05:36:49.767Z,3.98
2019-02-10T05:39:18.159Z,4.05
2019-02-10T05:41:46.596Z,1.77
2019-02-10T05:44:15.009Z,4.05
2019-02-10T05:46:50.796Z,2.87
2019-02-10T05:49:19.245Z,2.90
2019-02-10T05:51:47.704Z,4.00
2019-02-10T05:54:16.309Z,2.83
2019-02-10T05:56:44.712Z,2.50
2019-02-10T05:59:13.164Z,3.05
2019-02-10T06:02:09.720Z,5.97
2019-02-10T06:04:43.303Z,2.65
2019-02-10T06:07:16.768Z,2.27
2019-02-10T06:09:45.591Z,2.90
2019-02-10T06:12:16.979Z,2.00
2019-02-10T06:14:45.383Z,2.15
2019-02-10T06:17:18.126Z,1.98
2019-02-10T06:19:46.538Z,2.77
2019-02-10T06:22:14.959Z,4.40
2019-02-10T06:24:43.403Z,2.75
2019-02-10T06:27:11.825Z,7.45
2019-02-10T06:29:40.263Z,1.35
2019-02-10T06:32:08.687Z,2.58
2019-02-10T06:34:37.134Z,2.37
2019-02-10T06:37:05.528Z,1.77
2019-02-10T06:39:33.967Z,3.55
2019-02-10T06:42:02.387Z,2.25
2019-02-10T06:44:30.969Z,3.50
2019-02-10T06:46:59.370Z,2.20
2019-02-10T06:49:27.811Z,2.37
2019-02-10T06:51:56.231Z,2.12
2019-02-10T06:54:24.665Z,2.98
2019-02-10T06:56:53.085Z,2.15
2019-02-10T06:59:25.940Z,2.60
2019-02-10T07:02:05.187Z,2.30
2019-02-10T07:04:33.611Z,2.02
2019-02-10T07:07:02.040Z,3.58
2019-02-10T07:09:30.442Z,4.08
2019-02-10T07:11:58.919Z,3.58
2019-02-10T07:14:30.157Z,2.08
2019-02-10T07:17:04.487Z,2.45
2019-02-10T07:20:09.056Z,2.35
2019-02-10T07:22:49.216Z,9.98
2019-02-10T07:25:37.055Z,2.50
2019-02-10T07:28:08.539Z,2.15
2019-02-10T07:30:58.295Z,1.72
2019-02-10T07:33:38.490Z,2.65
2019-02-10T07:36:36.799Z,2.02
2019-02-10T07:39:20.042Z,6.00
2019-02-10T07:41:51.535Z,2.45
2019-02-10T07:44:26.053Z,2.95
2019-02-10T07:47:12.399Z,2.75
2019-02-10T07:49:46.836Z,3.75
2019-02-10T07:52:18.307Z,2.70
2019-02-10T07:54:55.904Z,4.55
2019-02-10T07:57:30.107Z,1.52
2019-02-10T08:00:01.603Z,2.15
2019-02-10T08:02:36.106Z,2.52
2019-02-10T08:05:16.210Z,2.55
2019-02-10T08:07:47.723Z,2.37
2019-02-10T08:10:52.799Z,2.00
2019-02-10T08:13:42.056Z,4.42
2019-02-10T08:16:16.490Z,4.40
2019-02-10T08:19:00.254Z,1.82
2019-02-10T08:21:55.746Z,1.77
2019-02-10T08:24:55.842Z,2.65
2019-02-10T08:27:45.111Z,2.10
2019-02-10T08:30:36.069Z,2.75
2019-02-10T08:33:19.757Z,4.85
2019-02-10T08:36:00.217Z,3.02
2019-02-10T08:38:31.780Z,3.52
2019-02-10T08:41:05.953Z,5.60
2019-02-10T08:43:46.084Z,2.77
2019-02-10T08:46:29.963Z,3.72
2019-02-10T08:49:10.215Z,3.83
2019-02-10T08:51:47.398Z,3.45
2019-02-10T08:54:15.838Z,1.95
2019-02-10T08:56:44.269Z,4.00
2019-02-10T08:59:12.793Z,1.85
2019-02-10T09:01:41.240Z,2.47
2019-02-10T09:04:09.684Z,2.02
2019-02-10T09:06:38.086Z,3.37
2019-02-10T09:09:07.958Z,2.35
2019-02-10T09:11:37.104Z,3.27
2019-02-10T09:14:05.607Z,2.22
2019-02-10T09:16:34.054Z,3.55
2019-02-10T09:19:02.464Z,2.85
2019-02-10T09:21:30.946Z,2.55
2019-02-10T09:23:59.379Z,1.60
2019-02-10T09:26:27.931Z,2.65
2019-02-10T09:28:56.324Z,2.33
2019-02-10T09:31:24.750Z,4.80
2019-02-10T09:33:53.154Z,3.40
2019-02-10T09:36:21.610Z,3.05
2019-02-10T09:38:50.010Z,1.67
2019-02-10T09:41:18.446Z,2.35
2019-02-10T09:43:46.871Z,7.17
2019-02-10T09:46:15.320Z,1.65
2019-02-10T09:48:43.726Z,2.20
2019-02-10T09:51:12.423Z,1.40
2019-02-10T09:53:40.994Z,2.33
2019-02-10T09:56:10.603Z,1.65
2019-02-10T09:58:39.345Z,1.65
2019-02-10T10:01:07.790Z,1.70
2019-02-10T10:03:36.199Z,1.65
2019-02-10T10:08:53.945Z,4.55
2019-02-10T10:11:22.383Z,6.55
2019-02-10T10:13:50.822Z,3.85
2019-02-10T10:16:19.234Z,1.62
2019-02-10T10:18:47.630Z,1.60
2019-02-10T10:21:19.274Z,1.62
2019-02-10T10:23:47.678Z,3.80
2019-02-10T10:26:16.118Z,1.50
2019-02-10T10:28:44.557Z,2.95
2019-02-10T10:31:12.963Z,1.67
2019-02-10T10:33:41.422Z,1.82
2019-02-10T10:36:09.832Z,2.50
2019-02-10T10:38:38.234Z,2.30
2019-02-10T10:41:06.685Z,3.08
2019-02-10T10:43:35.155Z,2.02
2019-02-10T10:46:03.625Z,3.45
2019-02-10T10:48:32.060Z,2.00
2019-02-10T10:51:00.480Z,2.62
2019-02-10T10:53:32.263Z,2.27
2019-02-10T10:56:00.675Z,2.62
2019-02-10T10:58:29.134Z,2.62
2019-02-10T11:00:57.562Z,1.30
2019-02-10T11:03:35.087Z,1.65
2019-02-10T11:06:03.520Z,2.80
2019-02-10T11:08:31.963Z,2.00
2019-02-10T11:11:00.373Z,1.35
2019-02-10T11:13:28.983Z,1.45
2019-02-10T11:15:57.446Z,2.75
2019-02-10T11:18:25.883Z,1.80
2019-02-10T11:20:54.314Z,1.75
2019-02-10T11:23:22.735Z,1.62
2019-02-10T11:25:51.163Z,2.05
2019-02-10T11:28:19.578Z,2.47
2019-02-10T11:30:48.026Z,1.35
2019-02-10T11:33:16.503Z,1.52
2019-02-10T11:35:44.920Z,1.57
2019-02-10T11:38:13.425Z,3.65
2019-02-10T11:40:42.457Z,1.20
2019-02-10T11:43:11.022Z,1.70
2019-02-10T11:45:39.485Z,3.65
2019-02-10T11:48:09.462Z,2.50
2019-02-10T11:50:37.890Z,1.40
2019-02-10T11:53:09.171Z,1.98
2019-02-10T11:55:37.578Z,1.57
2019-02-10T11:58:06.026Z,6.95
2019-02-10T12:00:34.582Z,3.05
2019-02-10T12:03:02.999Z,12.80
2019-02-10T12:05:31.442Z,7.20
2019-02-10T12:08:03.791Z,6.47
2019-02-10T12:10:32.207Z,4.62
2019-02-10T12:13:00.679Z,7.90
2019-02-10T12:15:29.090Z,14.55
2019-02-10T12:17:57.514Z,19.87
2019-02-10T12:20:25.922Z,16.57
2019-02-10T12:22:54.379Z,11.30
2019-02-10T12:25:22.827Z,13.83
2019-02-10T12:27:51.346Z,2.33
2019-02-10T12:30:19.790Z,13.65
2019-02-10T12:32:48.216Z,9.15
2019-02-10T12:35:16.622Z,6.65
2019-02-10T12:37:45.080Z,29.82
2019-02-10T12:40:13.559Z,12.65
2019-02-10T12:42:42.015Z,9.65
2019-02-10T12:45:12.237Z,19.98
2019-02-10T12:47:40.949Z,22.50
2019-02-10T12:50:16.006Z,10.18
2019-02-10T12:52:44.458Z,11.30
2019-02-10T12:55:13.266Z,36.70
2019-02-10T12:57:41.762Z,8.28
2019-02-10T13:00:20.201Z,6.47
2019-02-10T13:02:48.684Z,15.10
2019-02-10T13:05:17.135Z,14.10
2019-02-10T13:07:45.626Z,24.32
2019-02-10T13:10:18.381Z,12.55
2019-02-10T13:12:47.178Z,5.95
2019-02-10T13:15:15.623Z,14.73
2019-02-10T13:17:44.079Z,24.72
2019-02-10T13:20:15.408Z,16.12
2019-02-10T13:22:43.834Z,13.18
2019-02-10T13:25:14.954Z,23.67
2019-02-10T13:27:43.717Z,15.40
2019-02-10T13:30:17.004Z,12.47
2019-02-10T13:32:45.674Z,9.50
2019-02-10T13:35:14.226Z,2.30
2019-02-10T13:37:42.648Z,6.92
2019-02-10T13:40:16.733Z,16.02
2019-02-10T13:42:44.296Z,13.72
2019-02-10T13:45:12.910Z,7.47
2019-02-10T13:47:41.346Z,28.25
2019-02-10T13:50:12.718Z,8.60
2019-02-10T13:52:45.460Z,2.02
2019-02-10T13:55:19.756Z,2.20
2019-02-10T13:57:48.170Z,6.65
2019-02-10T14:00:22.475Z,3.55
2019-02-10T14:02:50.886Z,9.45
2019-02-10T14:05:19.360Z,5.90
2019-02-10T14:07:47.780Z,3.22
2019-02-10T14:10:24.945Z,2.75
2019-02-10T14:12:47.498Z,6.53
2019-02-10T14:15:17.600Z,6.50
2019-02-10T14:17:46.094Z,3.55
2019-02-10T14:20:16.434Z,1.70
2019-02-10T14:22:44.898Z,2.40
2019-02-10T14:25:13.379Z,2.77
2019-02-10T14:27:41.998Z,1.30
2019-02-10T14:30:17.178Z,4.30
2019-02-10T14:32:45.718Z,1.40
2019-02-10T14:35:14.155Z,1.87
2019-02-10T14:37:42.727Z,2.08
2019-02-10T14:40:11.482Z,2.65
2019-02-10T14:42:44.515Z,5.72
2019-02-10T14:45:14.804Z,4.65
2019-02-10T14:47:43.235Z,2.02
2019-02-10T14:50:18.816Z,3.08
2019-02-10T14:52:47.237Z,6.60
2019-02-10T14:55:15.651Z,3.55
2019-02-10T14:57:44.207Z,2.50
2019-02-10T15:00:16.500Z,4.60
2019-02-10T15:02:45.066Z,6.50
2019-02-10T15:05:13.609Z,6.78
2019-02-10T15:07:42.098Z,6.00
2019-02-10T15:10:15.917Z,5.55
2019-02-10T15:12:44.319Z,15.08
2019-02-10T15:15:12.834Z,7.80
2019-02-10T15:17:41.251Z,4.20
2019-02-10T15:20:11.727Z,5.03
2019-02-10T15:22:40.145Z,5.15
2019-02-10T15:25:13.368Z,6.15
2019-02-10T15:27:41.777Z,11.85
2019-02-10T15:30:17.328Z,3.75
2019-02-10T15:32:45.812Z,5.50
2019-02-10T15:35:17.015Z,4.55
2019-02-10T15:37:45.436Z,6.33
2019-02-10T15:40:14.038Z,7.10
2019-02-10T15:42:42.449Z,6.33
2019-02-10T15:45:15.240Z,8.23
2019-02-10T15:47:43.658Z,6.28
2019-02-10T15:50:13.440Z,8.63
2019-02-10T15:52:44.781Z,12.53
2019-02-10T15:55:17.607Z,5.20
2019-02-10T15:57:46.035Z,5.30
2019-02-10T16:00:23.731Z,8.00
2019-02-10T16:02:52.196Z,4.58
2019-02-10T16:05:20.641Z,9.90
2019-02-10T16:07:49.043Z,3.00
2019-02-10T16:10:17.635Z,2.40
2019-02-10T16:12:48.918Z,3.77
2019-02-10T16:15:17.327Z,7.53
2019-02-10T16:17:45.825Z,7.70
2019-02-10T16:20:15.218Z,2.67
2019-02-10T16:22:43.628Z,8.95
2019-02-10T16:25:12.032Z,2.67
2019-02-10T16:27:40.467Z,2.75
2019-02-10T16:30:14.506Z,3.27
2019-02-10T16:32:49.678Z,5.28
2019-02-10T16:35:13.175Z,4.47
2019-02-10T16:37:41.589Z,5.37
2019-02-10T16:40:13.148Z,6.25
2019-02-10T16:42:45.549Z,2.00
2019-02-10T16:45:14.497Z,2.27
2019-02-10T16:47:42.915Z,2.92
2019-02-10T16:50:13.594Z,3.70
2019-02-10T16:52:42.005Z,5.33
2019-02-10T16:55:18.839Z,5.90
2019-02-10T16:57:47.263Z,9.10
2019-02-10T17:00:16.743Z,1.22
2019-02-10T17:02:45.224Z,3.30
2019-02-10T17:05:13.696Z,6.45
2019-02-10T17:07:42.122Z,0.70
2019-02-10T17:10:18.271Z,1.20
2019-02-10T17:12:46.746Z,1.52
2019-02-10T17:15:18.227Z,2.17
2019-02-10T17:17:46.816Z,3.52
2019-02-10T17:20:16.568Z,1.65
2019-02-10T17:22:45.060Z,1.17
2019-02-10T17:25:22.144Z,0.88
2019-02-10T17:27:50.563Z,2.72
2019-02-10T17:30:23.455Z,2.87
2019-02-10T17:32:51.855Z,1.57
2019-02-10T17:35:20.324Z,1.47
2019-02-10T17:37:48.775Z,1.65
2019-02-10T17:40:22.854Z,2.67
2019-02-10T17:42:51.644Z,1.62
2019-02-10T17:45:20.082Z,4.10
2019-02-10T17:47:48.528Z,3.05
2019-02-10T17:50:16.964Z,3.05
2019-02-10T17:52:45.412Z,1.98
2019-02-10T17:55:13.891Z,1.32
2019-02-10T17:57:42.332Z,1.87
2019-02-10T18:00:17.204Z,1.92
2019-02-10T18:02:45.631Z,1.35
2019-02-10T18:05:14.068Z,2.65
2019-02-10T18:07:42.532Z,1.35
2019-02-10T18:10:13.407Z,5.50
2019-02-10T18:12:41.860Z,1.82
2019-02-10T18:15:14.971Z,1.85
2019-02-10T18:17:45.059Z,0.70
2019-02-10T18:20:24.024Z,1.20
2019-02-10T18:22:54.078Z,1.07
2019-02-10T18:25:36.376Z,0.72
2019-02-10T18:28:06.460Z,1.25
2019-02-10T18:30:42.236Z,1.32
2019-02-10T18:33:18.018Z,2.20
2019-02-10T18:35:48.081Z,0.85
2019-02-10T18:38:20.947Z,1.15
2019-02-10T18:41:00.248Z,1.02
2019-02-10T18:43:33.312Z,0.70
2019-02-10T18:46:12.383Z,1.30
2019-02-10T18:48:48.539Z,1.02
2019-02-10T18:51:25.107Z,0.88
2019-02-10T18:53:55.167Z,0.70
2019-02-10T18:56:25.279Z,1.10
2019-02-10T18:58:58.010Z,1.47
2019-02-10T19:01:40.131Z,1.50
2019-02-10T19:04:26.152Z,1.17
2019-02-10T19:07:02.382Z,2.00
2019-02-10T19:09:35.494Z,0.75
2019-02-10T19:12:05.760Z,1.82
2019-02-10T19:14:44.292Z,0.70
2019-02-10T19:17:22.101Z,1.80
2019-02-10T19:20:08.591Z,0.60
2019-02-10T19:22:44.646Z,0.78
2019-02-10T19:25:20.803Z,0.80
2019-02-10T19:28:08.945Z,0.80
2019-02-10T19:30:52.430Z,0.85
2019-02-10T19:33:31.360Z,0.60
2019-02-10T19:36:22.767Z,0.80
2019-02-10T19:38:55.669Z,0.60
2019-02-10T19:41:25.721Z,0.60
2019-02-10T19:44:07.787Z,0.65
2019-02-10T19:46:53.835Z,0.70
2019-02-10T19:49:23.931Z,0.70
2019-02-10T19:51:54.043Z,0.50
2019-02-10T19:54:24.174Z,0.70
2019-02-10T19:56:57.070Z,0.60
2019-02-10T19:59:29.866Z,1.10
2019-02-10T20:02:08.762Z,0.50
2019-02-10T20:04:38.801Z,0.70
2019-02-10T20:07:11.530Z,0.80
2019-02-10T20:09:53.460Z,0.70
2019-02-10T20:12:26.047Z,0.80
2019-02-10T20:15:14.102Z,0.70
2019-02-10T20:17:52.875Z,0.70
2019-02-10T20:20:25.447Z,0.90
2019-02-10T20:22:58.300Z,1.05
2019-02-10T20:25:40.390Z,0.95
2019-02-10T20:28:31.335Z,0.70
2019-02-10T20:31:07.311Z,0.80
2019-02-10T20:33:46.374Z,0.90
2019-02-10T20:36:22.743Z,1.45
2019-02-10T20:38:55.223Z,0.80
2019-02-10T20:41:25.290Z,0.93
2019-02-10T20:43:55.339Z,1.12
2019-02-10T20:46:25.430Z,0.80
2019-02-10T20:48:55.643Z,0.85
2019-02-10T20:51:28.405Z,3.17
2019-02-10T20:53:58.609Z,0.82
2019-02-10T20:56:31.990Z,2.62
2019-02-10T20:59:04.415Z,1.27
2019-02-10T21:01:34.521Z,1.65
2019-02-10T21:04:07.445Z,1.80
2019-02-10T21:06:46.814Z,4.55
2019-02-10T21:09:26.074Z,1.50
2019-02-10T21:12:04.967Z,1.67
2019-02-10T21:14:37.741Z,0.70
2019-02-10T21:17:07.787Z,1.37
2019-02-10T21:19:46.986Z,2.17
2019-02-10T21:22:17.024Z,0.90
2019-02-10T21:24:55.838Z,0.70
2019-02-10T21:27:28.662Z,1.40
2019-02-10T21:29:58.706Z,1.22
2019-02-10T21:32:45.430Z,2.05
2019-02-10T21:35:30.902Z,1.00
2019-02-10T21:38:03.778Z,1.65
2019-02-10T21:40:40.026Z,0.70
2019-02-10T21:43:10.112Z,2.12
2019-02-10T21:45:40.259Z,1.72
2019-02-10T21:48:14.538Z,0.82
2019-02-10T21:50:42.994Z,1.12
2019-02-10T21:53:11.456Z,0.90
2019-02-10T21:55:39.980Z,2.25
2019-02-10T21:58:08.443Z,1.37
2019-02-10T22:00:36.840Z,0.70
2019-02-10T22:03:05.246Z,0.60
2019-02-10T22:05:33.744Z,0.70
2019-02-10T22:08:02.155Z,1.25
2019-02-10T22:10:30.558Z,0.75
2019-02-10T22:12:58.998Z,0.70
2019-02-10T22:15:27.408Z,1.00
2019-02-10T22:17:55.826Z,0.88
2019-02-10T22:20:24.258Z,0.70
2019-02-10T22:22:52.735Z,0.90
2019-02-10T22:25:21.396Z,0.62
2019-02-10T22:27:49.819Z,0.60
2019-02-10T22:30:18.252Z,0.82
2019-02-10T22:32:46.754Z,1.22
2019-02-10T22:35:19.185Z,0.60
2019-02-10T22:37:48.235Z,0.60
2019-02-10T22:40:16.743Z,0.75
2019-02-10T22:42:46.040Z,0.60
2019-02-10T22:45:14.879Z,0.80
2019-02-10T22:47:44.680Z,1.00
2019-02-10T22:50:18.772Z,2.75
2019-02-10T22:52:47.211Z,0.70
2019-02-10T22:55:15.643Z,0.80
2019-02-10T22:57:45.422Z,0.60
2019-02-10T23:00:47.368Z,0.62
2019-02-10T23:03:15.971Z,0.50
2019-02-10T23:05:44.827Z,0.95
2019-02-10T23:08:13.279Z,0.62
2019-02-10T23:10:41.706Z,0.70
2019-02-10T23:13:10.127Z,0.80
2019-02-10T23:15:38.569Z,1.82
2019-02-10T23:18:07.011Z,0.50
2019-02-10T23:20:39.469Z,0.82
2019-02-10T23:23:07.867Z,1.02
2019-02-10T23:25:36.326Z,0.60
2019-02-10T23:28:04.736Z,0.70
2019-02-10T23:30:33.124Z,0.50
2019-02-10T23:33:01.665Z,0.70
2019-02-10T23:35:33.423Z,0.82
2019-02-10T23:38:01.852Z,0.60
2019-02-10T23:40:30.273Z,0.60
2019-02-10T23:43:02.103Z,0.60
2019-02-10T23:45:28.847Z,0.50
2019-02-10T23:47:57.290Z,0.60
2019-02-10T23:50:29.825Z,0.68
2019-02-10T23:53:03.462Z,0.93
2019-02-10T23:55:31.888Z,0.60
2019-02-10T23:58:00.358Z,0.70
